Time;durP1;ratioP1;P1;durP2;ratioP2;P2;SDS_P1;SDS_P2;PMS_P1;PMS_P2;Temp;Humidity;BMP_temperature;BMP_pressure;BME280_temperature;BME280_humidity;BME280_pressure;Samples;Min_cycle;Max_cycle;Signal;HPM_P1;HPM_P2
2023/05/01 00:00:17;;;;;;;11.57;6.85;;;9.20;99.90;;;;;;6193702;23;20199;-80
2023/05/01 00:02:44;;;;;;;7.15;5.60;;;9.10;99.90;;;;;;6191796;23;20172;-82
2023/05/01 00:05:12;;;;;;;7.28;6.40;;;9.10;99.90;;;;;;6194940;23;20199;-81
2023/05/01 00:07:38;;;;;;;9.98;6.63;;;9.20;99.90;;;;;;6194547;23;20220;-80
2023/05/01 00:10:07;;;;;;;8.85;6.75;;;9.20;99.90;;;;;;6194320;23;20240;-82
2023/05/01 00:12:34;;;;;;;14.05;6.55;;;9.20;99.90;;;;;;6195972;23;20240;-82
2023/05/01 00:15:00;;;;;;;9.07;6.80;;;9.10;99.90;;;;;;6195027;23;20266;-81
2023/05/01 00:17:27;;;;;;;9.07;6.45;;;9.10;99.90;;;;;;6209221;23;20207;-83
2023/05/01 00:19:54;;;;;;;9.75;6.63;;;9.10;99.90;;;;;;6198397;23;20520;-81
2023/05/01 00:22:23;;;;;;;15.75;7.20;;;9.10;99.90;;;;;;6195659;23;20180;-82
2023/05/01 00:24:50;;;;;;;12.23;6.95;;;9.10;99.90;;;;;;6194966;23;20176;-81
2023/05/01 00:27:17;;;;;;;12.23;6.32;;;9.00;99.90;;;;;;6195627;23;20172;-80
2023/05/01 00:29:44;;;;;;;12.10;6.57;;;9.10;99.90;;;;;;6204533;23;20171;-82
2023/05/01 00:32:10;;;;;;;11.52;6.57;;;9.00;99.90;;;;;;6213840;23;20168;-82
2023/05/01 00:34:37;;;;;;;9.93;6.38;;;9.00;99.90;;;;;;6202272;23;20179;-82
2023/05/01 00:37:04;;;;;;;18.10;7.15;;;9.10;99.90;;;;;;6199799;23;20205;-80
2023/05/01 00:39:32;;;;;;;10.48;6.47;;;9.10;99.90;;;;;;6196207;23;20231;-82
2023/05/01 00:41:59;;;;;;;14.45;8.15;;;9.00;99.90;;;;;;6205334;23;20173;-80
2023/05/01 00:44:26;;;;;;;12.95;6.40;;;9.00;99.90;;;;;;6197164;23;20211;-79
2023/05/01 00:46:55;;;;;;;10.30;6.70;;;9.00;99.90;;;;;;6199535;23;20177;-80
2023/05/01 00:49:22;;;;;;;9.27;6.55;;;9.00;99.90;;;;;;6196387;23;20201;-79
2023/05/01 00:51:51;;;;;;;10.52;6.18;;;9.00;99.90;;;;;;6201758;23;20235;-82
2023/05/01 00:54:18;;;;;;;6.28;5.68;;;9.00;99.90;;;;;;6198731;23;20177;-81
2023/05/01 00:56:47;;;;;;;11.05;6.75;;;9.00;99.90;;;;;;6198042;23;20419;-80
2023/05/01 00:59:14;;;;;;;8.52;6.22;;;9.00;99.90;;;;;;6206648;23;20203;-81
2023/05/01 01:01:42;;;;;;;12.00;6.80;;;9.00;99.90;;;;;;6206918;23;20204;-79
2023/05/01 01:04:08;;;;;;;14.50;7.35;;;8.90;99.90;;;;;;6202520;23;20271;-81
2023/05/01 01:06:43;;;;;;;12.05;7.57;;;8.90;99.90;;;;;;6195073;23;20176;-80
2023/05/01 01:09:20;;;;;;;11.57;7.68;;;8.90;99.90;;;;;;6194341;23;20200;-80
2023/05/01 01:11:58;;;;;;;14.85;7.15;;;8.90;99.90;;;;;;6205822;23;20172;-80
2023/05/01 01:14:32;;;;;;;6.68;5.38;;;8.90;99.90;;;;;;6201309;23;20164;-78
2023/05/01 01:17:04;;;;;;;10.32;7.10;;;9.00;99.90;;;;;;6195993;23;20241;-83
2023/05/01 01:20:13;;;;;;;15.38;6.68;;;9.00;99.90;;;;;;6192619;23;20275;-80
2023/05/01 01:22:46;;;;;;;13.98;6.85;;;8.90;99.90;;;;;;6193944;23;20230;-81
2023/05/01 01:26:00;;;;;;;9.07;7.10;;;8.90;99.90;;;;;;6194395;23;20215;-81
2023/05/01 01:29:02;;;;;;;11.55;6.32;;;8.90;99.90;;;;;;6195321;23;20200;-80
2023/05/01 01:31:33;;;;;;;9.23;6.10;;;8.90;99.90;;;;;;6195023;23;20167;-82
2023/05/01 01:34:08;;;;;;;10.05;7.32;;;8.90;99.90;;;;;;6196303;23;20168;-82
2023/05/01 01:36:42;;;;;;;10.70;6.88;;;8.80;99.90;;;;;;6193723;23;20203;-82
2023/05/01 01:39:14;;;;;;;12.10;7.32;;;8.80;99.90;;;;;;6196165;23;20200;-81
2023/05/01 01:41:47;;;;;;;12.00;7.65;;;8.80;99.90;;;;;;6199599;23;20178;-79
2023/05/01 01:44:20;;;;;;;10.70;6.85;;;8.80;99.90;;;;;;6210457;23;20181;-80
2023/05/01 01:46:50;;;;;;;10.43;6.68;;;8.80;99.90;;;;;;6209441;23;20220;-80
2023/05/01 01:49:23;;;;;;;11.07;6.78;;;8.80;99.90;;;;;;6202170;23;20227;-79
2023/05/01 01:51:52;;;;;;;13.23;5.97;;;8.80;99.90;;;;;;6196285;23;20540;-81
2023/05/01 01:54:23;;;;;;;12.20;6.63;;;8.80;99.90;;;;;;6195329;23;20200;-80
2023/05/01 01:56:51;;;;;;;9.02;5.68;;;8.80;99.90;;;;;;6193145;23;20656;-80
2023/05/01 01:59:20;;;;;;;12.68;6.68;;;8.80;99.90;;;;;;6194871;23;20196;-81
2023/05/01 02:01:48;;;;;;;7.93;5.07;;;8.80;99.90;;;;;;6194441;23;20243;-79
2023/05/01 02:04:16;;;;;;;7.80;5.47;;;8.70;99.90;;;;;;6196884;23;20199;-83
2023/05/01 02:06:46;;;;;;;7.32;5.18;;;8.70;99.90;;;;;;6211244;23;20183;-82
2023/05/01 02:09:18;;;;;;;10.63;6.80;;;8.80;99.90;;;;;;6198762;23;20196;-80
2023/05/01 02:11:46;;;;;;;6.80;5.35;;;8.70;99.90;;;;;;6195605;23;20200;-80
2023/05/01 02:14:16;;;;;;;11.23;6.70;;;8.70;99.90;;;;;;6195505;23;20180;-80
2023/05/01 02:16:45;;;;;;;12.98;8.90;;;8.60;99.90;;;;;;6193870;23;20202;-81
2023/05/01 02:19:14;;;;;;;14.35;6.57;;;8.60;99.90;;;;;;6212534;23;20203;-82
2023/05/01 02:21:51;;;;;;;11.20;7.00;;;8.50;99.90;;;;;;6213882;23;20153;-83
2023/05/01 02:24:22;;;;;;;14.48;6.60;;;8.60;99.90;;;;;;6214319;23;20163;-82
2023/05/01 02:26:54;;;;;;;14.57;7.80;;;8.50;99.90;;;;;;6213611;23;20208;-82
2023/05/01 02:29:21;;;;;;;12.60;6.45;;;8.50;99.90;;;;;;6213806;23;20232;-82
2023/05/01 02:31:47;;;;;;;16.70;6.90;;;8.50;99.90;;;;;;6212776;23;20168;-83
2023/05/01 02:34:14;;;;;;;13.15;6.32;;;8.50;99.90;;;;;;6213374;23;20167;-81
2023/05/01 02:36:41;;;;;;;8.23;4.70;;;8.50;99.90;;;;;;6213069;23;20208;-80
2023/05/01 02:39:10;;;;;;;9.02;5.88;;;8.50;99.90;;;;;;6203787;23;20192;-80
2023/05/01 02:41:39;;;;;;;11.48;5.18;;;8.60;99.90;;;;;;6194790;23;20196;-81
2023/05/01 02:44:09;;;;;;;6.75;4.88;;;8.60;99.90;;;;;;6194853;23;20244;-83
2023/05/01 02:46:37;;;;;;;9.15;5.20;;;8.70;99.90;;;;;;6194991;23;20622;-83
2023/05/01 02:49:06;;;;;;;8.88;6.00;;;8.70;99.90;;;;;;6192858;23;20247;-81
2023/05/01 02:51:34;;;;;;;8.70;5.68;;;8.60;99.90;;;;;;6192175;23;20180;-79
2023/05/01 02:54:02;;;;;;;9.48;5.80;;;8.60;99.90;;;;;;6193717;23;20234;-81
2023/05/01 02:56:31;;;;;;;9.55;6.13;;;8.60;99.90;;;;;;6192688;23;20231;-80
2023/05/01 02:58:57;;;;;;;8.65;6.28;;;8.60;99.90;;;;;;6193399;23;20279;-80
2023/05/01 03:01:24;;;;;;;10.15;6.85;;;8.70;99.90;;;;;;6193520;23;20255;-81
2023/05/01 03:03:51;;;;;;;10.70;6.60;;;8.70;99.90;;;;;;6196019;23;20173;-81
2023/05/01 03:06:18;;;;;;;9.63;6.93;;;8.70;99.90;;;;;;6198991;23;20519;-81
2023/05/01 03:08:46;;;;;;;8.25;7.03;;;8.70;99.90;;;;;;6197008;23;20534;-81
2023/05/01 03:11:14;;;;;;;9.85;7.38;;;8.70;99.90;;;;;;6193828;23;20180;-79
2023/05/01 03:13:42;;;;;;;10.55;6.28;;;8.70;99.90;;;;;;6194361;23;20173;-79
2023/05/01 03:16:09;;;;;;;11.63;7.15;;;8.70;99.90;;;;;;6199644;23;20187;-80
2023/05/01 03:18:36;;;;;;;11.50;6.35;;;8.70;99.90;;;;;;6197259;23;20252;-81
2023/05/01 03:21:02;;;;;;;11.00;6.82;;;8.70;99.90;;;;;;6197326;23;20183;-81
2023/05/01 03:23:29;;;;;;;8.45;5.22;;;8.70;99.90;;;;;;6197173;23;20245;-80
2023/05/01 03:25:58;;;;;;;16.48;6.22;;;8.70;99.90;;;;;;6196181;23;20191;-80
2023/05/01 03:28:25;;;;;;;8.60;5.45;;;8.70;99.90;;;;;;6209510;23;20240;-81
2023/05/01 03:30:53;;;;;;;11.10;6.03;;;8.70;99.90;;;;;;6207681;23;20184;-80
2023/05/01 03:33:20;;;;;;;9.75;6.25;;;8.70;99.80;;;;;;6208131;23;20176;-81
2023/05/01 03:35:47;;;;;;;11.75;5.45;;;8.60;99.90;;;;;;6200712;23;20235;-81
2023/05/01 03:38:13;;;;;;;8.25;5.78;;;8.50;99.90;;;;;;6196239;23;20259;-80
2023/05/01 03:40:40;;;;;;;13.07;6.50;;;8.50;99.90;;;;;;6192699;23;20245;-80
2023/05/01 03:43:07;;;;;;;10.73;5.65;;;8.50;99.90;;;;;;6195736;23;20662;-81
2023/05/01 03:45:34;;;;;;;6.63;4.85;;;8.50;99.90;;;;;;6196648;23;20177;-83
2023/05/01 03:48:02;;;;;;;7.85;5.25;;;8.50;99.90;;;;;;6199508;23;20699;-81
2023/05/01 03:50:29;;;;;;;9.45;5.35;;;8.50;99.90;;;;;;6207392;23;20187;-81
2023/05/01 03:52:56;;;;;;;9.38;5.85;;;8.50;99.90;;;;;;6200568;23;20184;-80
2023/05/01 03:55:23;;;;;;;10.40;5.05;;;8.50;99.90;;;;;;6197815;23;20202;-81
2023/05/01 03:57:51;;;;;;;12.98;5.78;;;8.50;99.90;;;;;;6195578;23;20288;-80
2023/05/01 04:00:18;;;;;;;10.65;5.22;;;8.50;99.90;;;;;;6196329;23;20263;-80
2023/05/01 04:02:45;;;;;;;9.50;5.90;;;8.50;99.90;;;;;;6197845;23;20203;-79
2023/05/01 04:05:13;;;;;;;11.52;5.43;;;8.50;99.90;;;;;;6197987;23;20164;-80
2023/05/01 04:07:40;;;;;;;10.07;5.05;;;8.60;99.90;;;;;;6196953;23;20220;-81
2023/05/01 04:10:08;;;;;;;10.57;4.95;;;8.50;99.90;;;;;;6194773;23;20255;-79
2023/05/01 04:12:35;;;;;;;12.20;6.82;;;8.50;99.90;;;;;;6200306;23;20599;-81
2023/05/01 04:15:03;;;;;;;9.88;5.80;;;8.50;99.90;;;;;;6207611;23;20458;-81
2023/05/01 04:17:30;;;;;;;7.82;5.60;;;8.50;99.90;;;;;;6194806;23;20239;-81
2023/05/01 04:19:57;;;;;;;10.63;5.80;;;8.50;99.90;;;;;;6194641;23;20176;-80
2023/05/01 04:22:25;;;;;;;7.22;4.85;;;8.50;99.90;;;;;;6195275;23;20175;-80
2023/05/01 04:24:53;;;;;;;5.32;4.20;;;8.50;99.90;;;;;;6195826;23;20177;-81
2023/05/01 04:27:20;;;;;;;8.98;5.53;;;8.60;99.90;;;;;;6194762;23;20173;-79
2023/05/01 04:29:47;;;;;;;12.10;6.78;;;8.60;99.90;;;;;;6192867;23;20180;-80
2023/05/01 04:32:14;;;;;;;12.13;4.43;;;8.70;99.80;;;;;;6195477;23;20546;-82
2023/05/01 04:34:41;;;;;;;9.73;5.22;;;8.70;99.40;;;;;;6195333;23;20573;-80
2023/05/01 04:37:08;;;;;;;9.02;5.75;;;8.70;99.60;;;;;;6193851;23;20204;-82
2023/05/01 04:39:36;;;;;;;7.47;5.30;;;8.70;99.60;;;;;;6194190;23;20200;-81
2023/05/01 04:42:03;;;;;;;8.85;5.13;;;8.80;99.60;;;;;;6194573;23;20196;-81
2023/05/01 04:44:33;;;;;;;8.45;5.47;;;8.80;99.50;;;;;;6195387;23;20179;-82
2023/05/01 04:47:01;;;;;;;12.23;5.53;;;8.90;99.40;;;;;;6197031;23;20199;-82
2023/05/01 04:49:27;;;;;;;7.65;5.05;;;9.00;99.10;;;;;;6196469;23;20248;-83
2023/05/01 04:51:55;;;;;;;5.80;4.68;;;9.00;98.90;;;;;;6197942;23;20271;-80
2023/05/01 04:54:22;;;;;;;9.57;5.60;;;9.10;98.80;;;;;;6209464;23;20180;-81
2023/05/01 04:56:50;;;;;;;7.07;4.63;;;9.40;98.60;;;;;;6208038;23;20180;-80
2023/05/01 04:59:17;;;;;;;7.30;4.40;;;9.80;97.90;;;;;;6197785;23;20680;-81
2023/05/01 05:01:44;;;;;;;9.30;5.35;;;10.40;96.70;;;;;;6194107;23;20232;-81
2023/05/01 05:04:11;;;;;;;9.73;5.45;;;11.20;95.40;;;;;;6194918;23;20175;-80
2023/05/01 05:06:38;;;;;;;6.13;4.65;;;11.90;94.00;;;;;;6194392;23;20187;-80
2023/05/01 05:09:05;;;;;;;12.77;5.63;;;12.40;92.70;;;;;;6194755;23;20207;-82
2023/05/01 05:11:32;;;;;;;8.55;5.07;;;12.60;91.70;;;;;;6193407;23;20253;-81
2023/05/01 05:14:00;;;;;;;6.25;5.10;;;13.00;91.50;;;;;;6194243;23;20259;-82
2023/05/01 05:16:27;;;;;;;9.82;4.40;;;13.60;90.40;;;;;;6194749;23;20185;-80
2023/05/01 05:18:56;;;;;;;8.52;4.55;;;14.00;89.90;;;;;;6194997;23;20240;-82
2023/05/01 05:21:23;;;;;;;9.35;4.68;;;14.90;87.10;;;;;;6196019;23;20181;-81
2023/05/01 05:23:50;;;;;;;7.40;4.97;;;15.60;84.80;;;;;;6195603;23;20194;-82
2023/05/01 05:26:17;;;;;;;11.03;6.03;;;16.40;82.40;;;;;;6195477;23;20437;-80
2023/05/01 05:28:44;;;;;;;7.97;5.17;;;16.60;79.70;;;;;;6194357;23;20492;-81
2023/05/01 05:31:12;;;;;;;7.40;4.87;;;17.20;78.50;;;;;;6196366;23;20411;-80
2023/05/01 05:33:39;;;;;;;6.67;5.47;;;17.80;77.10;;;;;;6195230;23;20463;-80
2023/05/01 05:36:06;;;;;;;7.27;4.60;;;18.00;75.30;;;;;;6193575;23;20411;-82
2023/05/01 05:38:33;;;;;;;9.63;4.80;;;18.00;74.40;;;;;;6194058;23;20451;-80
2023/05/01 05:41:00;;;;;;;5.47;4.60;;;17.80;74.90;;;;;;6192882;23;20455;-81
2023/05/01 05:43:27;;;;;;;13.20;5.80;;;18.40;74.20;;;;;;6193061;23;20408;-80
2023/05/01 05:45:57;;;;;;;6.13;5.30;;;19.00;72.10;;;;;;6200711;23;20403;-81
2023/05/01 05:48:25;;;;;;;5.87;4.70;;;19.60;70.80;;;;;;6203328;23;20443;-83
2023/05/01 05:50:52;;;;;;;10.47;4.40;;;19.60;68.60;;;;;;6202510;23;20416;-82
2023/05/01 05:53:19;;;;;;;10.03;5.53;;;19.50;68.70;;;;;;6212910;23;20419;-81
2023/05/01 05:55:47;;;;;;;9.47;5.30;;;19.60;68.90;;;;;;6203277;23;20383;-82
2023/05/01 05:58:18;;;;;;;9.40;5.30;;;19.30;68.40;;;;;;6197679;23;20454;-83
2023/05/01 06:00:46;;;;;;;9.80;5.50;;;18.50;69.50;;;;;;6197066;23;20172;-83
2023/05/01 06:03:13;;;;;;;10.33;4.67;;;18.20;70.80;;;;;;6196763;23;20740;-83
2023/05/01 06:06:00;;;;;;;7.07;4.80;;;18.60;71.70;;;;;;6195160;23;20490;-84
